createdAt,value
2022-07-26T00:01:50.241Z,94912.19
2022-07-26T00:04:17.926Z,94914.72
2022-07-26T00:06:45.692Z,94909.91
2022-07-26T00:09:13.503Z,94905.31
2022-07-26T00:11:41.232Z,94899.19
2022-07-26T00:14:10.427Z,94890.47
2022-07-26T00:16:38.790Z,94885.44
2022-07-26T00:19:08.149Z,94879.84
2022-07-26T00:21:37.182Z,94868.38
2022-07-26T00:24:09.441Z,94856.31
2022-07-26T00:26:37.438Z,94844.03
2022-07-26T00:29:06.194Z,94837.69
2022-07-26T00:31:35.561Z,94841.91
2022-07-26T00:34:03.212Z,94835.97
2022-07-26T00:36:30.815Z,94836.47
2022-07-26T00:38:58.429Z,94826.03
2022-07-26T00:41:25.992Z,94825.03
2022-07-26T00:43:57.556Z,94833.31
2022-07-26T00:46:25.454Z,94825.03
2022-07-26T00:48:54.592Z,94820.50
2022-07-26T00:51:22.656Z,94818.28
2022-07-26T00:53:50.556Z,94822.03
2022-07-26T00:56:18.787Z,94816.75
2022-07-26T00:58:46.406Z,94818.47
2022-07-26T01:01:14.229Z,94827.88
2022-07-26T01:03:42.708Z,94821.53
2022-07-26T01:06:12.158Z,94820.09
2022-07-26T01:08:39.777Z,94827.78
2022-07-26T01:11:07.552Z,94827.38
2022-07-26T01:13:35.728Z,94830.97
2022-07-26T01:16:04.203Z,94825.44
2022-07-26T01:18:31.914Z,94832.69
2022-07-26T01:21:02.081Z,94830.72
2022-07-26T01:23:43.007Z,94828.81
2022-07-26T01:26:10.849Z,94829.72
2022-07-26T01:28:39.790Z,94836.34
2022-07-26T01:31:08.376Z,94831.66
2022-07-26T01:33:36.309Z,94844.44
2022-07-26T01:36:03.998Z,94838.00
2022-07-26T01:38:31.650Z,94816.81
2022-07-26T01:41:00.649Z,94829.06
2022-07-26T01:43:28.274Z,94824.19
2022-07-26T01:45:56.482Z,94821.34
2022-07-26T01:48:24.144Z,94831.78
2022-07-26T01:50:51.720Z,94838.69
2022-07-26T01:53:19.336Z,94831.53
2022-07-26T01:55:46.940Z,94837.06
2022-07-26T01:58:15.850Z,94842.56
2022-07-26T02:00:43.657Z,94843.31
2022-07-26T02:03:11.374Z,94843.00
2022-07-26T02:05:39.064Z,94851.50
2022-07-26T02:08:06.733Z,94848.75
2022-07-26T02:10:48.745Z,94844.03
2022-07-26T02:13:17.759Z,94848.84
2022-07-26T02:15:45.421Z,94849.94
2022-07-26T02:18:13.140Z,94845.25
2022-07-26T02:20:40.767Z,94840.66
2022-07-26T02:23:08.397Z,94845.97
2022-07-26T02:25:36.118Z,94844.03
2022-07-26T02:28:03.750Z,94852.41
2022-07-26T02:30:32.706Z,94852.09
2022-07-26T02:33:01.397Z,94850.75
2022-07-26T02:35:29.642Z,94854.56
2022-07-26T02:37:59.211Z,94855.84
2022-07-26T02:40:26.886Z,94847.06
2022-07-26T02:42:54.481Z,94852.19
2022-07-26T02:45:22.227Z,94850.75
2022-07-26T02:47:52.951Z,94847.47
2022-07-26T02:50:21.802Z,94841.88
2022-07-26T02:52:49.628Z,94839.09
2022-07-26T02:55:18.992Z,94835.84
2022-07-26T02:57:47.151Z,94831.72
2022-07-26T03:00:16.526Z,94837.25
2022-07-26T03:02:44.225Z,94830.22
2022-07-26T03:05:13.384Z,94825.19
2022-07-26T03:07:41.031Z,94842.06
2022-07-26T03:10:09.701Z,94838.03
2022-07-26T03:12:37.343Z,94847.16
2022-07-26T03:15:05.879Z,94849.28
2022-07-26T03:17:33.695Z,94847.56
2022-07-26T03:20:02.330Z,94848.78
2022-07-26T03:22:31.495Z,94838.34
2022-07-26T03:24:59.149Z,94839.88
2022-07-26T03:27:26.783Z,94839.03
2022-07-26T03:29:54.460Z,94842.03
2022-07-26T03:32:22.137Z,94826.19
2022-07-26T03:34:49.874Z,94821.28
2022-07-26T03:37:19.145Z,94819.41
2022-07-26T03:39:48.343Z,94824.72
2022-07-26T03:42:16.176Z,94829.59
2022-07-26T03:44:43.810Z,94827.63
2022-07-26T03:47:11.491Z,94839.69
2022-07-26T03:49:39.111Z,94828.00
2022-07-26T03:52:07.313Z,94830.66
2022-07-26T03:54:34.968Z,94832.31
2022-07-26T03:57:03.044Z,94832.72
2022-07-26T03:59:30.659Z,94823.13
2022-07-26T04:01:58.358Z,94827.78
2022-07-26T04:04:26.588Z,94829.19
2022-07-26T04:06:55.002Z,94838.06
2022-07-26T04:09:22.638Z,94843.22
2022-07-26T04:11:50.333Z,94850.59
2022-07-26T04:14:19.340Z,94851.13
2022-07-26T04:16:47.067Z,94864.63
2022-07-26T04:19:15.034Z,94867.88
2022-07-26T04:21:42.695Z,94858.69
2022-07-26T04:24:10.633Z,94867.78
2022-07-26T04:26:38.844Z,94856.44
2022-07-26T04:29:06.464Z,94863.63
2022-07-26T04:31:36.713Z,94863.63
2022-07-26T04:34:04.687Z,94863.63
2022-07-26T04:36:32.914Z,94861.47
2022-07-26T04:39:00.589Z,94856.44
2022-07-26T04:41:28.253Z,94857.06
2022-07-26T04:43:56.254Z,94863.09
2022-07-26T04:46:25.141Z,94866.97
2022-07-26T04:48:54.351Z,94864.22
2022-07-26T04:51:22.222Z,94861.47
2022-07-26T04:53:49.836Z,94860.31
2022-07-26T04:56:17.429Z,94867.91
2022-07-26T04:58:45.047Z,94867.50
2022-07-26T05:01:12.747Z,94866.28
2022-07-26T05:03:40.595Z,94861.88
2022-07-26T05:06:09.678Z,94861.66
2022-07-26T05:08:37.308Z,94867.19
2022-07-26T05:11:05.076Z,94861.66
2022-07-26T05:13:32.932Z,94872.63
2022-07-26T05:16:01.662Z,94860.56
2022-07-26T05:18:31.845Z,94858.09
2022-07-26T05:21:15.220Z,94864.81
2022-07-26T05:23:42.837Z,94871.34
2022-07-26T05:26:12.165Z,94871.91
2022-07-26T05:28:40.051Z,94861.38
2022-07-26T05:31:08.071Z,94863.81
2022-07-26T05:33:35.805Z,94864.44
2022-07-26T05:36:03.473Z,94862.78
2022-07-26T05:38:32.444Z,94877.94
2022-07-26T05:41:00.300Z,94871.34
2022-07-26T05:43:28.252Z,94875.78
2022-07-26T05:46:09.980Z,94868.00
2022-07-26T05:48:38.640Z,94873.53
2022-07-26T05:51:06.559Z,94875.97
2022-07-26T05:53:36.122Z,94877.03
2022-07-26T05:56:03.789Z,94878.94
2022-07-26T05:58:31.477Z,94880.19
2022-07-26T06:00:59.194Z,94878.81
2022-07-26T06:03:26.967Z,94879.13
2022-07-26T06:05:56.640Z,94872.28
2022-07-26T06:08:25.418Z,94866.47
2022-07-26T06:10:54.955Z,94868.09
2022-07-26T06:13:23.173Z,94865.84
2022-07-26T06:15:51.158Z,94879.53
2022-07-26T06:18:18.849Z,94876.72
2022-07-26T06:20:47.916Z,94886.31
2022-07-26T06:23:15.952Z,94888.19
2022-07-26T06:25:44.753Z,94893.09
2022-07-26T06:28:13.960Z,94890.03
2022-07-26T06:30:41.571Z,94896.97
2022-07-26T06:33:09.607Z,94900.03
2022-07-26T06:35:38.783Z,94901.97
2022-07-26T06:38:07.080Z,94898.72
2022-07-26T06:40:34.788Z,94900.84
2022-07-26T06:43:04.718Z,94904.94
2022-07-26T06:45:34.209Z,94913.53
2022-07-26T06:48:01.939Z,94909.22
2022-07-26T06:50:29.536Z,94911.22
2022-07-26T06:52:57.166Z,94920.22
2022-07-26T06:55:24.970Z,94911.28
2022-07-26T06:57:52.578Z,94918.91
2022-07-26T07:00:20.362Z,94912.88
2022-07-26T07:02:49.318Z,94917.13
2022-07-26T07:05:16.973Z,94919.53
2022-07-26T07:07:45.122Z,94918.94
2022-07-26T07:10:14.330Z,94921.69
2022-07-26T07:12:44.684Z,94931.06
2022-07-26T07:15:12.696Z,94919.75
2022-07-26T07:17:40.356Z,94920.63
2022-07-26T07:20:10.329Z,94924.72
2022-07-26T07:22:37.951Z,94934.78
2022-07-26T07:25:06.454Z,94934.31
2022-07-26T07:27:34.132Z,94934.69
2022-07-26T07:30:02.017Z,94929.03
2022-07-26T07:32:29.716Z,94929.91
2022-07-26T07:34:57.387Z,94935.41
2022-07-26T07:37:26.340Z,94941.38
2022-07-26T07:39:53.952Z,94943.81
2022-07-26T07:42:21.675Z,94949.06
2022-07-26T07:44:50.081Z,94940.19
2022-07-26T07:47:17.812Z,94937.16
2022-07-26T07:49:45.468Z,94937.97
2022-07-26T07:52:13.179Z,94941.25
2022-07-26T07:54:42.347Z,94940.97
2022-07-26T07:57:10.134Z,94946.16
2022-07-26T07:59:39.123Z,94942.59
2022-07-26T08:02:07.322Z,94940.06
2022-07-26T08:04:35.049Z,94935.97
2022-07-26T08:07:02.683Z,94940.72
2022-07-26T08:09:30.309Z,94940.72
2022-07-26T08:12:03.085Z,94939.03
2022-07-26T08:14:31.021Z,94935.13
2022-07-26T08:16:58.824Z,94932.63
2022-07-26T08:19:41.453Z,94930.41
2022-07-26T08:22:09.697Z,94939.72
2022-07-26T08:24:37.306Z,94930.84
2022-07-26T08:27:06.345Z,94934.97
2022-07-26T08:29:34.090Z,94939.34
2022-07-26T08:32:01.762Z,94943.16
2022-07-26T08:34:29.412Z,94944.56
2022-07-26T08:37:16.141Z,94940.84
2022-07-26T08:39:44.754Z,94942.94
2022-07-26T08:42:17.426Z,94940.63
2022-07-26T08:44:51.529Z,94947.16
2022-07-26T08:47:37.932Z,94945.34
2022-07-26T08:50:09.041Z,94959.06
2022-07-26T08:52:39.643Z,94960.41
2022-07-26T08:55:08.110Z,94965.03
2022-07-26T08:57:37.110Z,94960.25
2022-07-26T09:00:19.403Z,94962.16
2022-07-26T09:02:47.111Z,94958.38
2022-07-26T09:05:14.930Z,94954.00
2022-07-26T09:07:43.124Z,94952.06
2022-07-26T09:10:12.200Z,94953.41
2022-07-26T09:12:42.029Z,94945.59
2022-07-26T09:15:21.355Z,94945.72
2022-07-26T09:17:51.540Z,94953.31
2022-07-26T09:20:24.394Z,94955.19
2022-07-26T09:22:59.164Z,94962.28
2022-07-26T09:25:28.476Z,94960.38
2022-07-26T09:27:58.969Z,94961.66
2022-07-26T09:30:27.133Z,94958.09
2022-07-26T09:33:03.455Z,94955.97
2022-07-26T09:35:50.443Z,94964.91
2022-07-26T09:38:19.553Z,94956.41
2022-07-26T09:40:51.367Z,94952.94
2022-07-26T09:43:23.972Z,94952.13
2022-07-26T09:46:04.709Z,94952.75
2022-07-26T09:48:59.483Z,94950.78
2022-07-26T09:51:36.436Z,94946.56
2022-07-26T09:54:04.596Z,94945.03
2022-07-26T09:56:49.220Z,94945.94
2022-07-26T09:59:20.073Z,94951.44
2022-07-26T10:01:48.581Z,94958.41
2022-07-26T10:04:17.139Z,94956.31
2022-07-26T10:06:44.889Z,94957.00
2022-07-26T10:09:13.064Z,94955.81
2022-07-26T10:11:43.369Z,94957.03
2022-07-26T10:14:40.089Z,94959.53
2022-07-26T10:17:49.344Z,94948.16
2022-07-26T10:20:47.728Z,94945.97
2022-07-26T10:23:42.956Z,94950.03
2022-07-26T10:26:13.389Z,94952.34
2022-07-26T10:28:41.921Z,94951.34
2022-07-26T10:31:40.787Z,94949.41
2022-07-26T10:34:09.418Z,94949.59
2022-07-26T10:36:39.087Z,94949.94
2022-07-26T10:39:09.318Z,94955.78
2022-07-26T10:41:39.176Z,94947.66
2022-07-26T10:44:22.469Z,94941.63
2022-07-26T10:47:05.507Z,94947.81
2022-07-26T10:49:35.418Z,94946.84
2022-07-26T10:52:12.633Z,94960.22
2022-07-26T10:55:06.445Z,94946.84
2022-07-26T10:57:35.192Z,94951.72
2022-07-26T11:00:05.023Z,94947.13
2022-07-26T11:02:35.143Z,94954.47
2022-07-26T11:05:03.927Z,94950.91
2022-07-26T11:07:32.289Z,94950.91
2022-07-26T11:10:00.785Z,94944.06
2022-07-26T11:12:28.821Z,94941.28
2022-07-26T11:14:56.416Z,94941.59
2022-07-26T11:17:25.207Z,94940.16
2022-07-26T11:19:54.321Z,94939.47
2022-07-26T11:22:22.194Z,94939.00
2022-07-26T11:24:49.823Z,94941.97
2022-07-26T11:27:17.464Z,94947.97
2022-07-26T11:29:49.177Z,94942.25
2022-07-26T11:32:20.775Z,94947.81
2022-07-26T11:35:00.598Z,94946.66
2022-07-26T11:37:28.376Z,94936.88
2022-07-26T11:39:56.076Z,94929.69
2022-07-26T11:42:23.790Z,94930.84
2022-07-26T11:44:53.938Z,94924.81
2022-07-26T11:47:25.214Z,94929.38
2022-07-26T11:52:42.587Z,94933.28
2022-07-26T11:55:10.758Z,94929.34
2022-07-26T11:57:38.447Z,94927.91
2022-07-26T12:00:07.638Z,94926.25
2022-07-26T12:02:35.261Z,94924.59
2022-07-26T12:05:18.418Z,94930.72
2022-07-26T12:08:07.291Z,94920.69
2022-07-26T12:10:35.193Z,94925.09
2022-07-26T12:13:11.308Z,94912.19
2022-07-26T12:15:49.051Z,94917.88
2022-07-26T12:18:26.646Z,94923.31
2022-07-26T12:21:05.630Z,94923.31
2022-07-26T12:23:46.262Z,94916.00
2022-07-26T12:26:24.601Z,94922.19
2022-07-26T12:28:52.369Z,94911.38
2022-07-26T12:31:25.211Z,94906.66
2022-07-26T12:33:52.952Z,94915.91
2022-07-26T12:36:27.567Z,94916.19
2022-07-26T12:38:58.573Z,94910.94
2022-07-26T12:41:33.664Z,94913.97
2022-07-26T12:44:01.285Z,94916.59
2022-07-26T12:46:29.291Z,94918.03
2022-07-26T12:49:00.374Z,94911.69
2022-07-26T12:51:28.558Z,94907.72
2022-07-26T12:53:56.257Z,94908.88
2022-07-26T12:56:25.265Z,94905.03
2022-07-26T12:58:54.135Z,94905.66
2022-07-26T13:01:21.946Z,94904.00
2022-07-26T13:03:49.625Z,94903.78
2022-07-26T13:06:17.223Z,94897.47
2022-07-26T13:08:44.820Z,94894.69
2022-07-26T13:11:12.431Z,94895.78
2022-07-26T13:13:41.863Z,94902.66
2022-07-26T13:16:12.088Z,94889.31
2022-07-26T13:18:40.226Z,94891.44
2022-07-26T13:21:08.198Z,94889.38
2022-07-26T13:23:36.023Z,94888.59
2022-07-26T13:26:04.198Z,94889.81
2022-07-26T13:28:32.100Z,94885.91
2022-07-26T13:31:01.706Z,94883.63
2022-07-26T13:33:29.410Z,94881.50
2022-07-26T13:35:58.039Z,94892.13
2022-07-26T13:38:25.961Z,94883.63
2022-07-26T13:40:53.965Z,94886.91
2022-07-26T13:43:21.653Z,94884.28
2022-07-26T13:45:49.321Z,94887.69
2022-07-26T13:48:18.332Z,94881.34
2022-07-26T13:50:46.377Z,94880.84
2022-07-26T13:53:14.104Z,94876.78
2022-07-26T13:55:41.752Z,94876.09
2022-07-26T13:58:10.399Z,94879.88
2022-07-26T14:00:38.707Z,94873.66
2022-07-26T14:03:06.559Z,94874.31
2022-07-26T14:05:35.740Z,94876.13
2022-07-26T14:08:03.422Z,94885.94
2022-07-26T14:10:31.061Z,94875.78
2022-07-26T14:12:58.933Z,94883.13
2022-07-26T14:15:26.741Z,94878.22
2022-07-26T14:17:54.433Z,94883.16
2022-07-26T14:20:22.434Z,94877.09
2022-07-26T14:22:53.575Z,94873.34
2022-07-26T14:25:21.794Z,94871.38
2022-07-26T14:27:49.779Z,94867.78
2022-07-26T14:30:17.768Z,94870.25
2022-07-26T14:32:45.590Z,94869.75
2022-07-26T14:35:13.648Z,94876.78
2022-07-26T14:37:44.970Z,94878.22
2022-07-26T14:40:16.498Z,94873.66
2022-07-26T14:42:44.467Z,94866.63
2022-07-26T14:45:13.963Z,94873.19
2022-07-26T14:47:41.999Z,94871.19
2022-07-26T14:50:10.920Z,94871.53
2022-07-26T14:52:39.500Z,94871.03
2022-07-26T14:55:08.328Z,94859.56
2022-07-26T14:57:39.344Z,94864.78
2022-07-26T15:00:09.413Z,94864.09
2022-07-26T15:02:39.387Z,94864.75
2022-07-26T15:05:07.497Z,94872.44
2022-07-26T15:07:35.098Z,94863.59
2022-07-26T15:10:02.902Z,94861.31
2022-07-26T15:12:30.612Z,94862.28
2022-07-26T15:14:59.570Z,94857.75
2022-07-26T15:17:27.218Z,94861.00
2022-07-26T15:19:54.918Z,94861.69
2022-07-26T15:22:22.763Z,94857.59
2022-07-26T15:24:50.358Z,94858.88
2022-07-26T15:27:17.968Z,94852.19
2022-07-26T15:29:46.811Z,94850.38
2022-07-26T15:32:15.899Z,94853.16
2022-07-26T15:34:43.693Z,94843.66
2022-07-26T15:37:11.489Z,94847.28
2022-07-26T15:39:39.160Z,94840.63
2022-07-26T15:42:09.283Z,94836.88
2022-07-26T15:44:38.400Z,94828.59
2022-07-26T15:47:06.387Z,94832.16
2022-07-26T15:49:40.362Z,94832.69
2022-07-26T15:52:10.802Z,94834.81
2022-07-26T15:54:38.457Z,94831.81
2022-07-26T15:57:06.090Z,94845.19
2022-07-26T15:59:33.887Z,94837.84
2022-07-26T16:02:01.670Z,94838.19
2022-07-26T16:04:29.422Z,94834.56
2022-07-26T16:06:58.516Z,94835.22
2022-07-26T16:09:26.250Z,94832.72
2022-07-26T16:11:54.031Z,94828.34
2022-07-26T16:14:21.725Z,94831.59
2022-07-26T16:16:49.508Z,94822.59
2022-07-26T16:19:17.197Z,94829.66
2022-07-26T16:21:45.040Z,94823.78
2022-07-26T16:24:14.083Z,94829.00
2022-07-26T16:26:42.448Z,94820.53
2022-07-26T16:29:11.080Z,94825.31
2022-07-26T16:31:41.541Z,94831.03
2022-07-26T16:34:09.830Z,94826.13
2022-07-26T16:36:37.831Z,94817.66
2022-07-26T16:39:05.880Z,94821.91
2022-07-26T16:41:35.423Z,94825.47
2022-07-26T16:44:03.262Z,94822.22
2022-07-26T16:46:31.166Z,94815.84
2022-07-26T16:48:58.946Z,94814.72
2022-07-26T16:51:27.308Z,94817.31
2022-07-26T16:53:55.244Z,94808.81
2022-07-26T16:56:23.010Z,94816.34
2022-07-26T16:58:51.959Z,94817.81
2022-07-26T17:01:20.031Z,94812.41
2022-07-26T17:03:47.807Z,94820.28
2022-07-26T17:06:15.613Z,94817.50
2022-07-26T17:08:43.313Z,94819.97
2022-07-26T17:11:11.416Z,94816.38
2022-07-26T17:13:39.184Z,94819.28
2022-07-26T17:16:08.252Z,94817.34
2022-07-26T17:18:36.054Z,94814.06
2022-07-26T17:21:03.731Z,94811.16
2022-07-26T17:23:31.423Z,94812.31
2022-07-26T17:25:59.085Z,94810.34
2022-07-26T17:28:26.802Z,94811.47
2022-07-26T17:30:54.562Z,94822.25
2022-07-26T17:33:23.809Z,94814.56
2022-07-26T17:35:51.525Z,94818.69
2022-07-26T17:38:19.408Z,94816.38
2022-07-26T17:40:47.147Z,94827.47
2022-07-26T17:43:14.904Z,94821.78
2022-07-26T17:45:42.718Z,94820.78
2022-07-26T17:48:10.498Z,94832.69
2022-07-26T17:50:39.489Z,94836.28
2022-07-26T17:53:07.352Z,94837.59
2022-07-26T17:55:35.073Z,94842.25
2022-07-26T17:58:02.943Z,94841.28
2022-07-26T18:00:30.915Z,94838.84
2022-07-26T18:02:59.010Z,94845.34
2022-07-26T18:05:33.981Z,94838.69
2022-07-26T18:08:05.659Z,94828.22
2022-07-26T18:10:33.905Z,94836.06
2022-07-26T18:13:01.860Z,94838.50
2022-07-26T18:15:29.813Z,94832.63
2022-07-26T18:17:57.584Z,94838.81
2022-07-26T18:20:25.394Z,94831.00
2022-07-26T18:22:53.760Z,94840.91
2022-07-26T18:25:23.030Z,94831.63
2022-07-26T18:27:50.882Z,94838.28
2022-07-26T18:30:18.583Z,94846.09
2022-07-26T18:32:46.285Z,94840.88
2022-07-26T18:35:14.041Z,94841.22
2022-07-26T18:37:41.720Z,94847.38
2022-07-26T18:40:10.162Z,94845.25
2022-07-26T18:42:39.316Z,94844.09
2022-07-26T18:45:08.248Z,94834.31
2022-07-26T18:47:35.883Z,94842.28
2022-07-26T18:50:03.705Z,94841.13
2022-07-26T18:52:31.962Z,94841.13
2022-07-26T18:55:00.923Z,94846.31
2022-07-26T18:57:28.653Z,94842.91
2022-07-26T18:59:57.597Z,94844.66
2022-07-26T19:02:25.418Z,94839.78
2022-07-26T19:04:53.088Z,94852.38
2022-07-26T19:07:20.797Z,94855.31
2022-07-26T19:09:54.910Z,94860.16
2022-07-26T19:12:25.719Z,94852.63
2022-07-26T19:14:53.395Z,94857.06
2022-07-26T19:17:22.457Z,94861.28
2022-07-26T19:19:50.110Z,94860.50
2022-07-26T19:22:17.861Z,94862.75
2022-07-26T19:24:46.374Z,94872.66
2022-07-26T19:27:14.959Z,94871.16
2022-07-26T19:29:42.629Z,94870.94
2022-07-26T19:32:10.637Z,94887.13
2022-07-26T19:34:39.641Z,94886.13
2022-07-26T19:37:07.334Z,94882.84
2022-07-26T19:39:35.040Z,94891.28
2022-07-26T19:42:02.786Z,94895.56
2022-07-26T19:44:30.405Z,94895.47
2022-07-26T19:46:58.202Z,94894.88
2022-07-26T19:49:26.008Z,94890.81
2022-07-26T19:51:55.010Z,94889.16
2022-07-26T19:54:22.921Z,94886.00
2022-07-26T19:56:50.715Z,94885.78
2022-07-26T19:59:23.505Z,94882.00
2022-07-26T20:01:52.965Z,94888.88
2022-07-26T20:04:21.480Z,94881.69
2022-07-26T20:06:50.461Z,94883.97
2022-07-26T20:09:19.639Z,94882.72
2022-07-26T20:11:50.888Z,94872.19
2022-07-26T20:14:29.526Z,94878.00
2022-07-26T20:16:58.416Z,94882.28
2022-07-26T20:19:28.211Z,94869.63
2022-07-26T20:21:56.308Z,94878.59
2022-07-26T20:24:25.961Z,94882.47
2022-07-26T20:26:53.911Z,94885.53
2022-07-26T20:29:21.801Z,94878.50
2022-07-26T20:31:49.651Z,94885.75
2022-07-26T20:34:17.593Z,94887.38
2022-07-26T20:36:45.515Z,94891.34
2022-07-26T20:39:13.817Z,94883.28
2022-07-26T20:41:43.519Z,94889.00
2022-07-26T20:44:12.370Z,94881.25
2022-07-26T20:46:41.888Z,94888.72
2022-07-26T20:49:10.642Z,94887.28
2022-07-26T20:51:39.114Z,94890.66
2022-07-26T20:54:07.199Z,94892.09
2022-07-26T20:56:34.996Z,94895.16
2022-07-26T20:59:04.607Z,94896.78
2022-07-26T21:01:33.586Z,94896.28
2022-07-26T21:04:01.613Z,94889.00
2022-07-26T21:06:29.737Z,94898.63
2022-07-26T21:08:57.989Z,94892.88
2022-07-26T21:11:25.905Z,94893.69
2022-07-26T21:13:53.606Z,94888.88
2022-07-26T21:16:22.788Z,94883.06
2022-07-26T21:18:52.664Z,94881.63
2022-07-26T21:21:21.121Z,94890.59
2022-07-26T21:23:49.229Z,94884.34
2022-07-26T21:26:16.964Z,94884.66
2022-07-26T21:28:44.829Z,94883.09
2022-07-26T21:31:12.659Z,94880.31
2022-07-26T21:33:43.692Z,94879.31
2022-07-26T21:36:11.551Z,94877.06
2022-07-26T21:38:39.245Z,94881.44
2022-07-26T21:41:07.291Z,94874.31
2022-07-26T21:43:35.028Z,94879.63
2022-07-26T21:46:06.608Z,94878.34
2022-07-26T21:48:36.785Z,94871.06
2022-07-26T21:51:05.950Z,94882.75
2022-07-26T21:53:33.748Z,94884.41
2022-07-26T21:56:01.453Z,94882.75
2022-07-26T21:58:32.159Z,94882.53
2022-07-26T22:01:06.855Z,94886.44
2022-07-26T22:03:36.202Z,94890.06
2022-07-26T22:06:05.970Z,94891.53
2022-07-26T22:08:33.866Z,94894.38
2022-07-26T22:11:01.629Z,94889.97
2022-07-26T22:13:29.271Z,94885.09
2022-07-26T22:15:56.994Z,94891.13
2022-07-26T22:18:24.741Z,94897.72
2022-07-26T22:20:52.751Z,94898.44
2022-07-26T22:23:22.979Z,94900.53
2022-07-26T22:25:50.670Z,94902.41
2022-07-26T22:28:18.992Z,94903.22
2022-07-26T22:30:46.941Z,94900.63
2022-07-26T22:33:14.819Z,94890.03
2022-07-26T22:35:42.513Z,94889.72
2022-07-26T22:38:11.838Z,94885.88
2022-07-26T22:40:42.377Z,94890.53
2022-07-26T22:43:10.584Z,94890.47
2022-07-26T22:45:38.798Z,94890.47
2022-07-26T22:48:08.002Z,94895.41
2022-07-26T22:50:35.724Z,94890.41
2022-07-26T22:53:03.375Z,94885.97
2022-07-26T22:55:31.227Z,94882.03
2022-07-26T22:58:00.430Z,94875.38
2022-07-26T23:00:28.415Z,94862.56
2022-07-26T23:02:56.230Z,94872.53
2022-07-26T23:05:26.063Z,94862.78
2022-07-26T23:08:29.784Z,94867.41
2022-07-26T23:10:59.565Z,94867.41
2022-07-26T23:13:28.728Z,94864.22
2022-07-26T23:16:00.399Z,94873.06
2022-07-26T23:18:28.889Z,94880.53
2022-07-26T23:20:56.632Z,94871.78
2022-07-26T23:23:28.527Z,94882.88
2022-07-26T23:25:57.940Z,94875.22
2022-07-26T23:28:37.376Z,94877.72
2022-07-26T23:31:08.597Z,94872.53
2022-07-26T23:33:52.257Z,94870.97
2022-07-26T23:36:23.195Z,94875.50
2022-07-26T23:38:50.900Z,94870.91
2022-07-26T23:41:18.992Z,94877.56
2022-07-26T23:43:46.919Z,94874.81
2022-07-26T23:46:16.074Z,94882.16
2022-07-26T23:48:43.939Z,94881.06
2022-07-26T23:51:11.706Z,94866.19
2022-07-26T23:53:39.519Z,94870.78
2022-07-26T23:56:07.398Z,94865.06
2022-07-26T23:58:35.111Z,94864.38
